Time;durP1;ratioP1;P1;durP2;ratioP2;P2;SDS_P1;SDS_P2;PMS_P1;PMS_P2;Temp;Humidity;BMP_temperature;BMP_pressure;BME280_temperature;BME280_humidity;BME280_pressure;Samples;Min_cycle;Max_cycle;Signal;HPM_P1;HPM_P2
2022/09/10 00:01:58;;;;;;;15.32;10.70;;;;;;;20.84;nan;94943.28;5009835;28;20891;-65
2022/09/10 00:04:25;;;;;;;16.33;11.15;;;;;;;20.87;nan;94943.06;5009627;28;20195;-64
2022/09/10 00:06:51;;;;;;;15.00;10.32;;;;;;;20.88;nan;94954.22;5007192;28;20218;-64
2022/09/10 00:09:18;;;;;;;12.73;10.52;;;;;;;20.67;nan;94957.50;5009314;28;20264;-65
2022/09/10 00:11:45;;;;;;;15.93;11.70;;;;;;;20.56;nan;94959.22;5008715;28;20319;-66
2022/09/10 00:14:16;;;;;;;20.65;11.98;;;;;;;20.55;nan;94954.97;5008708;28;20624;-67
2022/09/10 00:16:43;;;;;;;17.02;11.48;;;;;;;20.67;nan;94961.81;5008179;28;20215;-65
2022/09/10 00:19:10;;;;;;;14.98;11.90;;;;;;;20.93;nan;94952.13;5009250;28;20697;-63
2022/09/10 00:21:37;;;;;;;20.55;11.57;;;;;;;20.84;nan;94958.78;5009417;28;20975;-64
2022/09/10 00:24:05;;;;;;;16.48;12.43;;;;;;;20.70;nan;94961.59;5009481;28;20963;-65
2022/09/10 00:26:36;;;;;;;13.95;10.80;;;;;;;20.78;nan;94961.03;5009225;28;20212;-66
2022/09/10 00:29:05;;;;;;;17.25;11.43;;;;;;;20.91;nan;94959.97;5010847;28;20210;-66
2022/09/10 00:31:34;;;;;;;14.15;11.18;;;;;;;20.96;nan;94955.28;5009215;28;20211;-66
2022/09/10 00:34:01;;;;;;;13.13;10.40;;;;;;;21.03;nan;94959.03;5010184;28;20269;-65
2022/09/10 00:36:31;;;;;;;17.20;11.25;;;;;;;21.14;nan;94960.81;5008554;28;20210;-65
2022/09/10 00:39:01;;;;;;;13.73;11.65;;;;;;;21.21;nan;94971.53;5010656;28;20261;-66
2022/09/10 00:41:28;;;;;;;15.65;10.95;;;;;;;21.25;nan;94962.63;5010432;28;20257;-64
2022/09/10 00:43:57;;;;;;;15.30;11.77;;;;;;;21.16;nan;94958.13;5010822;28;20265;-66
2022/09/10 00:46:41;;;;;;;18.98;11.50;;;;;;;21.11;nan;94961.03;5008252;28;20221;-66
2022/09/10 00:49:14;;;;;;;15.52;11.25;;;;;;;21.13;nan;94959.16;5007770;28;20299;-67
2022/09/10 00:51:43;;;;;;;14.73;10.85;;;;;;;21.21;nan;94958.63;5009266;28;20577;-66
2022/09/10 00:54:12;;;;;;;14.52;10.35;;;;;;;21.22;nan;94952.50;5010366;28;20227;-65
2022/09/10 00:56:39;;;;;;;14.07;9.82;;;;;;;21.16;nan;94952.94;5007588;28;20304;-67
2022/09/10 00:59:09;;;;;;;13.95;9.63;;;;;;;21.25;nan;94957.44;5009841;28;20211;-67
2022/09/10 01:01:39;;;;;;;14.50;10.38;;;;;;;21.36;nan;94954.84;5008026;28;20211;-68
2022/09/10 01:04:09;;;;;;;13.10;8.88;;;;;;;21.34;nan;94946.38;5008876;28;20469;-66
2022/09/10 01:06:36;;;;;;;11.35;10.15;;;;;;;21.28;nan;94947.66;5009034;28;20283;-67
2022/09/10 01:09:04;;;;;;;15.15;9.18;;;;;;;21.27;nan;94940.88;5007598;28;20272;-64
2022/09/10 01:11:48;;;;;;;15.35;9.20;;;;;;;21.24;nan;94935.13;5009453;28;20242;-65
2022/09/10 01:14:42;;;;;;;10.65;9.15;;;;;;;21.14;nan;94944.47;5009743;28;20273;-65
2022/09/10 01:17:18;;;;;;;13.98;9.60;;;;;;;21.23;nan;94943.81;5007147;28;20263;-65
2022/09/10 01:20:10;;;;;;;10.55;9.38;;;;;;;21.23;nan;94939.47;5010347;28;20348;-65
2022/09/10 01:22:56;;;;;;;11.63;9.68;;;;;;;21.15;nan;94935.78;5009562;28;20207;-66
2022/09/10 01:25:38;;;;;;;13.60;9.98;;;;;;;21.12;nan;94930.84;5008221;28;20692;-65
2022/09/10 01:28:08;;;;;;;11.05;9.35;;;;;;;21.28;nan;94928.78;5008780;28;20223;-65
2022/09/10 01:30:41;;;;;;;16.58;9.73;;;;;;;21.19;nan;94927.69;5008748;28;20268;-67
2022/09/10 01:33:15;;;;;;;11.65;9.43;;;;;;;21.14;nan;94918.66;5009137;28;20721;-65
2022/09/10 01:35:46;;;;;;;12.65;9.52;;;;;;;21.00;nan;94917.13;5008371;28;20219;-66
2022/09/10 01:38:16;;;;;;;12.88;9.43;;;;;;;20.96;nan;94920.88;5007310;28;20369;-65
2022/09/10 01:40:45;;;;;;;14.15;10.13;;;;;;;20.95;nan;94924.41;5008099;28;20218;-66
2022/09/10 01:43:13;;;;;;;14.38;9.20;;;;;;;20.98;nan;94919.84;5008592;28;20211;-65
2022/09/10 01:45:51;;;;;;;10.45;9.35;;;;;;;20.97;nan;94912.19;5009060;28;20529;-65
2022/09/10 01:48:34;;;;;;;11.48;8.43;;;;;;;21.11;nan;94924.88;5009261;28;20976;-65
2022/09/10 01:51:10;;;;;;;24.08;9.95;;;;;;;21.16;nan;94917.59;5008558;28;20254;-65
2022/09/10 01:53:58;;;;;;;12.18;9.35;;;;;;;21.17;nan;94926.16;5007825;28;20688;-66
2022/09/10 01:56:35;;;;;;;10.65;9.50;;;;;;;21.33;nan;94944.72;5007878;28;20206;-65
2022/09/10 01:59:13;;;;;;;15.50;9.88;;;;;;;21.24;nan;94932.53;5007685;28;20199;-65
2022/09/10 02:01:45;;;;;;;11.77;9.55;;;;;;;21.24;nan;94940.28;5006180;28;20331;-65
2022/09/10 02:04:15;;;;;;;10.20;9.20;;;;;;;20.88;nan;94944.72;5008079;28;20234;-66
2022/09/10 02:06:46;;;;;;;15.10;9.75;;;;;;;20.60;nan;94945.13;5008700;28;20276;-66
2022/09/10 02:09:15;;;;;;;12.88;9.18;;;;;;;20.69;nan;94942.69;5008179;28;20211;-65
2022/09/10 02:11:47;;;;;;;17.20;10.07;;;;;;;20.83;nan;94951.16;5007691;28;20273;-66
2022/09/10 02:14:16;;;;;;;10.93;9.82;;;;;;;20.91;nan;94944.47;5008130;28;20272;-65
2022/09/10 02:16:51;;;;;;;10.52;9.35;;;;;;;20.92;nan;94932.38;5008909;28;20207;-65
2022/09/10 02:19:18;;;;;;;14.50;9.85;;;;;;;20.95;nan;94925.22;5006865;28;21171;-65
2022/09/10 02:21:45;;;;;;;12.38;9.45;;;;;;;20.97;nan;94933.69;5008047;28;20294;-65
2022/09/10 02:24:13;;;;;;;19.02;9.63;;;;;;;21.14;nan;94940.13;5009373;28;20272;-66
2022/09/10 02:26:42;;;;;;;10.25;9.30;;;;;;;21.04;nan;94944.34;5007620;28;20744;-67
2022/09/10 02:29:13;;;;;;;12.95;9.65;;;;;;;21.05;nan;94943.41;5005573;28;20788;-66
2022/09/10 02:31:42;;;;;;;12.05;9.75;;;;;;;21.14;nan;94941.91;5005661;28;20599;-66
2022/09/10 02:34:09;;;;;;;11.90;9.35;;;;;;;21.12;nan;94933.44;5006801;28;20207;-65
2022/09/10 02:36:37;;;;;;;14.10;8.57;;;;;;;21.13;nan;94937.66;5008990;28;20209;-66
2022/09/10 02:39:04;;;;;;;16.27;10.10;;;;;;;20.93;nan;94942.59;5007005;28;20216;-67
2022/09/10 02:41:33;;;;;;;11.88;9.13;;;;;;;20.87;nan;94932.72;5005714;28;20697;-69
2022/09/10 02:44:00;;;;;;;11.82;9.82;;;;;;;20.97;nan;94948.38;5007420;28;20203;-66
2022/09/10 02:46:28;;;;;;;25.58;9.85;;;;;;;21.08;nan;94950.13;5008275;28;20313;-66
2022/09/10 02:48:59;;;;;;;10.40;9.45;;;;;;;21.12;nan;94941.19;5007630;28;20209;-66
2022/09/10 02:51:26;;;;;;;13.05;9.27;;;;;;;21.00;nan;94940.38;5005109;28;20218;-65
2022/09/10 02:53:54;;;;;;;10.23;9.32;;;;;;;20.90;nan;94937.66;5007958;28;20291;-64
2022/09/10 02:56:22;;;;;;;10.38;9.32;;;;;;;20.81;nan;94948.69;5006743;28;20341;-64
2022/09/10 02:58:49;;;;;;;14.95;9.55;;;;;;;21.02;nan;94944.50;5007958;28;20269;-65
2022/09/10 03:01:18;;;;;;;10.75;8.88;;;;;;;20.97;nan;94948.38;5009019;28;20313;-66
2022/09/10 03:03:49;;;;;;;14.32;9.88;;;;;;;21.10;nan;94949.06;5006047;28;20202;-65
2022/09/10 03:06:17;;;;;;;11.40;10.13;;;;;;;20.94;nan;94954.59;5007972;28;20247;-66
2022/09/10 03:08:44;;;;;;;17.13;9.80;;;;;;;20.86;nan;94946.59;5006777;28;20211;-65
2022/09/10 03:11:15;;;;;;;10.23;9.05;;;;;;;20.89;nan;94950.69;5005320;28;20239;-64
2022/09/10 03:13:44;;;;;;;11.68;9.40;;;;;;;20.71;nan;94943.41;5007861;28;20211;-65
2022/09/10 03:16:12;;;;;;;14.68;9.45;;;;;;;20.78;nan;94941.19;5007456;28;20234;-66
2022/09/10 03:18:39;;;;;;;12.13;9.27;;;;;;;20.80;nan;94947.03;5006062;28;20728;-66
2022/09/10 03:21:11;;;;;;;13.38;9.63;;;;;;;20.74;nan;94944.94;5006538;28;20376;-64
2022/09/10 03:23:40;;;;;;;10.15;9.25;;;;;;;20.73;nan;94950.22;5008240;28;20293;-65
2022/09/10 03:26:09;;;;;;;11.23;9.95;;;;;;;20.73;nan;94948.47;5007669;28;20595;-67
2022/09/10 03:28:36;;;;;;;12.63;10.15;;;;;;;20.61;nan;94944.19;5007280;28;20211;-67
2022/09/10 03:31:03;;;;;;;12.13;9.93;;;;;;;20.59;nan;94931.41;5007702;28;20258;-66
2022/09/10 03:33:29;;;;;;;11.23;9.85;;;;;;;20.72;nan;94928.75;5007392;28;20252;-67
2022/09/10 03:35:56;;;;;;;11.13;9.70;;;;;;;20.75;nan;94927.69;5007210;28;20292;-64
2022/09/10 03:38:24;;;;;;;10.10;9.18;;;;;;;20.86;nan;94922.53;5007013;28;20241;-65
2022/09/10 03:40:52;;;;;;;12.63;9.85;;;;;;;20.51;nan;94926.03;5006421;28;20219;-64
2022/09/10 03:43:19;;;;;;;12.02;10.32;;;;;;;20.51;nan;94927.78;5008428;28;20284;-65
2022/09/10 03:45:47;;;;;;;11.63;10.35;;;;;;;20.44;nan;94918.84;5008858;28;20203;-65
2022/09/10 03:48:15;;;;;;;15.80;10.13;;;;;;;20.58;nan;94924.59;5006264;28;20773;-67
2022/09/10 03:50:42;;;;;;;15.27;9.82;;;;;;;20.56;nan;94933.38;5005740;28;20208;-64
2022/09/10 03:53:09;;;;;;;10.55;9.40;;;;;;;20.71;nan;94924.50;5006003;28;20972;-66
2022/09/10 03:55:36;;;;;;;10.90;9.77;;;;;;;20.73;nan;94920.06;5006367;28;20378;-65
2022/09/10 03:58:05;;;;;;;10.55;9.30;;;;;;;20.47;nan;94913.44;5007468;28;20207;-65
2022/09/10 04:00:33;;;;;;;12.27;9.27;;;;;;;20.62;nan;94920.03;5006771;28;20700;-65
2022/09/10 04:03:00;;;;;;;12.30;10.00;;;;;;;20.66;nan;94918.88;5006329;28;20640;-67
2022/09/10 04:05:28;;;;;;;10.70;9.60;;;;;;;20.73;nan;94920.06;5006922;28;20330;-66
2022/09/10 04:07:57;;;;;;;13.07;10.55;;;;;;;20.77;nan;94900.81;5006523;28;20257;-66
2022/09/10 04:10:24;;;;;;;12.38;9.85;;;;;;;20.66;nan;94913.72;5006711;28;20294;-67
2022/09/10 04:12:52;;;;;;;11.68;10.48;;;;;;;20.63;nan;94924.25;5010798;28;20246;-67
2022/09/10 04:15:20;;;;;;;11.55;10.45;;;;;;;20.49;nan;94921.91;5010850;28;20238;-65
2022/09/10 04:17:50;;;;;;;12.40;10.93;;;;;;;20.35;nan;94926.28;5010577;28;20211;-69
2022/09/10 04:20:17;;;;;;;11.60;9.82;;;;;;;20.25;nan;94924.50;5010595;28;20214;-65
2022/09/10 04:22:43;;;;;;;12.45;10.77;;;;;;;20.11;nan;94932.44;5009650;28;20206;-65
2022/09/10 04:25:10;;;;;;;12.32;10.90;;;;;;;20.02;nan;94955.41;5010278;28;20253;-66
2022/09/10 04:27:37;;;;;;;19.77;11.98;;;;;;;20.07;nan;94956.78;5012193;28;20619;-66
2022/09/10 04:30:04;;;;;;;17.58;10.98;;;;;;;20.11;nan;94959.03;5010552;28;20268;-66
2022/09/10 04:32:32;;;;;;;11.68;9.98;;;;;;;20.12;nan;94955.53;5010499;28;20663;-66
2022/09/10 04:35:01;;;;;;;10.93;9.75;;;;;;;20.24;nan;94948.66;5010244;28;20292;-66
2022/09/10 04:37:29;;;;;;;11.48;10.32;;;;;;;20.58;nan;94954.75;5010283;28;20681;-66
2022/09/10 04:39:55;;;;;;;14.45;10.20;;;;;;;20.54;nan;94953.38;5011447;28;20229;-65
2022/09/10 04:42:22;;;;;;;11.48;9.73;;;;;;;20.63;nan;94943.16;5011929;28;20682;-66
2022/09/10 04:44:49;;;;;;;16.60;10.27;;;;;;;20.69;nan;94939.28;5009956;28;21397;-65
2022/09/10 04:47:17;;;;;;;12.20;10.00;;;;;;;20.64;nan;94934.47;5010998;28;20839;-66
2022/09/10 04:49:45;;;;;;;12.02;10.88;;;;;;;20.60;nan;94930.47;5010107;28;20303;-66
2022/09/10 04:52:13;;;;;;;17.00;9.82;;;;;;;20.70;nan;94926.28;5008563;28;20293;-67
2022/09/10 04:54:40;;;;;;;12.02;10.85;;;;;;;20.69;nan;94916.06;5010208;28;20210;-67
2022/09/10 04:57:07;;;;;;;11.05;9.75;;;;;;;20.79;nan;94914.41;5009166;28;20230;-66
2022/09/10 04:59:34;;;;;;;14.98;10.27;;;;;;;20.74;nan;94911.38;5010194;28;20572;-65
2022/09/10 05:02:02;;;;;;;11.60;9.77;;;;;;;20.94;nan;94910.66;5010540;28;20203;-66
2022/09/10 05:04:29;;;;;;;15.95;11.27;;;;;;;21.08;nan;94913.94;5008599;28;20210;-65
2022/09/10 05:06:57;;;;;;;13.40;10.82;;;;;;;20.99;nan;94923.25;5007808;28;20222;-65
2022/09/10 05:09:24;;;;;;;11.43;10.38;;;;;;;20.78;nan;94927.47;5010519;28;20273;-66
2022/09/10 05:11:51;;;;;;;15.40;11.38;;;;;;;20.73;nan;94938.13;5007298;28;20243;-66
2022/09/10 05:14:18;;;;;;;13.07;9.90;;;;;;;20.72;nan;94946.81;5011125;28;20292;-65
2022/09/10 05:16:45;;;;;;;40.47;26.23;;;;;;;20.95;nan;94947.66;5008598;28;20898;-66
2022/09/10 05:19:16;;;;;;;30.55;18.23;;;;;;;21.13;nan;94956.59;5009238;28;20582;-66
2022/09/10 05:21:43;;;;;;;16.35;11.75;;;;;;;21.18;nan;94957.06;5008358;28;20203;-65
2022/09/10 05:24:11;;;;;;;22.20;14.93;;;;;;;20.96;nan;94946.72;5011654;28;20211;-64
2022/09/10 05:26:38;;;;;;;15.68;11.27;;;;;;;20.77;nan;94947.31;5008910;28;20200;-67
2022/09/10 05:29:06;;;;;;;14.65;12.30;;;;;;;20.81;nan;94951.28;5008759;28;20213;-66
2022/09/10 05:31:34;;;;;;;13.52;12.15;;;;;;;20.81;nan;94948.69;5009151;28;20222;-66
2022/09/10 05:34:01;;;;;;;14.38;11.15;;;;;;;20.88;nan;94944.72;5009281;28;20215;-64
2022/09/10 05:36:28;;;;;;;14.27;11.50;;;;;;;20.93;nan;94952.94;5008321;28;20226;-66
2022/09/10 05:38:54;;;;;;;19.42;12.27;;;;;;;20.81;nan;94945.28;5009667;28;20211;-67
2022/09/10 05:41:24;;;;;;;17.35;11.30;;;;;;;20.97;nan;94933.69;5006858;28;20707;-66
2022/09/10 05:43:50;;;;;;;12.13;10.75;;;;;;;20.86;nan;94944.00;5007582;28;20775;-66
2022/09/10 05:46:17;;;;;;;18.20;11.18;;;;;;;20.91;nan;94939.31;5007248;28;20203;-65
2022/09/10 05:48:44;;;;;;;15.18;11.95;;;;;;;21.04;nan;94944.34;5007912;28;20207;-66
2022/09/10 05:51:11;;;;;;;14.95;11.07;;;;;;;21.03;nan;94935.78;5009046;28;20681;-65
2022/09/10 05:53:38;;;;;;;11.52;10.43;;;;;;;21.34;nan;94943.78;5008658;28;20195;-67
2022/09/10 05:56:06;;;;;;;16.33;12.50;;;;;;;22.06;nan;94944.13;5007165;28;20764;-66
2022/09/10 05:58:34;;;;;;;16.77;10.75;;;;;;;23.41;nan;94948.34;5009517;28;20503;-67
2022/09/10 06:01:01;;;;;;;16.25;10.52;;;;;;;25.09;nan;94941.16;5007880;28;20294;-67
2022/09/10 06:03:27;;;;;;;14.13;11.10;;;;;;;26.71;nan;95004.63;5009596;28;20304;-65
2022/09/10 06:05:54;;;;;;;16.25;10.25;;;;;;;28.11;nan;94991.22;5005866;28;20284;-66
2022/09/10 06:08:22;;;;;;;24.88;13.73;;;;;;;29.13;nan;94983.94;5007523;28;20215;-66
2022/09/10 06:10:57;;;;;;;16.85;8.15;;;;;;;29.26;nan;94992.06;5009853;28;22105;-65
2022/09/10 06:13:24;;;;;;;9.13;8.30;;;;;;;28.53;nan;94999.94;5009013;28;20596;-65
2022/09/10 06:15:52;;;;;;;13.68;8.07;;;;;;;26.94;nan;95005.78;5008651;28;20251;-65
2022/09/10 06:18:19;;;;;;;8.40;7.63;;;;;;;26.20;nan;95026.13;5006879;28;20261;-66
2022/09/10 06:20:47;;;;;;;12.05;9.73;;;;;;;24.96;nan;95003.88;5009128;28;20213;-65
2022/09/10 06:23:15;;;;;;;9.30;8.43;;;;;;;24.14;nan;94998.25;5008385;28;20203;-66
2022/09/10 06:25:43;;;;;;;11.63;9.60;;;;;;;23.61;nan;95003.72;5006598;28;20217;-65
2022/09/10 06:28:11;;;;;;;18.90;14.20;;;;;;;23.54;nan;95000.00;5007855;28;20207;-65
2022/09/10 06:30:37;;;;;;;82.07;50.00;;;;;;;23.20;nan;94990.84;5008780;28;20207;-65
2022/09/10 06:33:06;;;;;;;29.33;18.20;;;;;;;23.37;nan;95005.78;5008001;28;20207;-66
2022/09/10 06:35:32;;;;;;;13.05;11.15;;;;;;;23.84;nan;95003.50;5007089;28;20206;-66
2022/09/10 06:37:59;;;;;;;11.45;10.02;;;;;;;24.00;nan;94999.44;5006398;28;20747;-65
2022/09/10 06:40:26;;;;;;;19.38;13.45;;;;;;;24.28;nan;95004.84;5009193;28;20202;-66
2022/09/10 06:42:54;;;;;;;11.93;9.48;;;;;;;24.98;nan;95009.75;5009722;28;20213;-67
2022/09/10 06:45:20;;;;;;;9.02;7.97;;;;;;;;;;5008449;28;20297;-66
2022/09/10 06:47:47;;;;;;;10.68;9.35;;;;;;;25.66;nan;94989.56;5005143;28;20638;-66
2022/09/10 06:50:15;;;;;;;19.55;12.65;;;;;;;27.30;nan;94996.06;5006232;28;20715;-65
2022/09/10 06:52:42;;;;;;;13.20;10.05;;;;;;;28.72;nan;94991.78;5007599;28;20210;-66
2022/09/10 06:55:09;;;;;;;10.90;8.77;;;;;;;29.99;nan;94984.00;5005490;28;20234;-64
2022/09/10 06:57:36;;;;;;;11.20;8.80;;;;;;;30.89;nan;94987.69;5008321;28;20710;-64
2022/09/10 07:00:03;;;;;;;12.02;8.30;;;;;;;;;;5005215;28;20239;-63
2022/09/10 07:02:30;;;;;;;11.18;8.55;;;;;;;31.94;nan;94966.53;5006667;28;20233;-65
2022/09/10 07:04:57;;;;;;;13.45;8.60;;;;;;;;;;5004715;28;20211;-64
2022/09/10 07:07:25;;;;;;;17.05;8.95;;;;;;;34.07;nan;94993.41;5005199;28;20226;-65
2022/09/10 07:09:54;;;;;;;11.13;9.57;;;;;;;33.91;nan;94977.09;5005458;28;20291;-63
2022/09/10 07:12:21;;;;;;;15.50;9.77;;;;;;;34.04;nan;94983.25;5004196;28;20235;-66
2022/09/10 07:14:48;;;;;;;14.80;9.38;;;;;;;34.76;nan;94976.50;5006694;28;20195;-63
2022/09/10 07:17:15;;;;;;;12.52;8.98;;;;;;;35.91;nan;94975.19;5004219;28;20234;-66
2022/09/10 07:19:42;;;;;;;12.30;9.15;;;;;;;36.82;nan;94972.28;5005736;28;20600;-65
2022/09/10 07:22:08;;;;;;;10.55;9.30;;;;;;;36.77;nan;94971.09;5003909;28;20633;-64
2022/09/10 07:24:37;;;;;;;11.10;9.55;;;;;;;37.65;nan;94984.19;5007380;28;20696;-67
2022/09/10 07:27:03;;;;;;;16.08;8.75;;;;;;;37.10;nan;94970.81;5005111;28;20230;-65
2022/09/10 07:29:30;;;;;;;11.70;9.07;;;;;;;36.68;nan;94966.22;5004717;28;20813;-65
2022/09/10 07:31:57;;;;;;;17.70;13.80;;;;;;;36.76;nan;94968.66;5005956;28;20259;-64
2022/09/10 07:34:24;;;;;;;10.88;9.77;;;;;;;37.25;nan;94972.34;5008344;28;20230;-63
2022/09/10 07:36:51;;;;;;;20.30;9.77;;;;;;;36.45;nan;94966.78;5006056;28;20593;-64
2022/09/10 07:39:18;;;;;;;13.45;9.60;;;;;;;35.89;nan;94972.75;5006212;28;20203;-68
2022/09/10 07:41:46;;;;;;;12.32;9.48;;;;;;;35.66;nan;94973.19;5005203;28;20203;-65
2022/09/10 07:44:12;;;;;;;21.35;16.27;;;;;;;36.16;nan;94973.44;5005400;28;20379;-65
2022/09/10 07:46:39;;;;;;;11.10;8.65;;;;;;;37.00;nan;94981.09;5008213;28;20703;-64
2022/09/10 07:49:06;;;;;;;15.57;10.63;;;;;;;36.63;nan;94981.94;5010492;28;20207;-65
2022/09/10 07:51:34;;;;;;;15.65;9.35;;;;;;;36.59;nan;94972.81;5010933;28;20203;-65
2022/09/10 07:54:01;;;;;;;13.18;9.40;;;;;;;35.38;nan;94975.31;5010971;28;20211;-64
2022/09/10 07:56:31;;;;;;;14.82;9.90;;;;;;;34.17;nan;94979.81;5010808;28;20230;-64
2022/09/10 07:59:01;;;;;;;11.48;9.85;;;;;;;33.42;nan;94988.56;5008765;28;20215;-65
2022/09/10 08:01:28;;;;;;;15.48;9.38;;;;;;;33.75;nan;94979.03;5008476;28;20210;-66
2022/09/10 08:03:57;;;;;;;13.38;9.80;;;;;;;33.62;nan;94976.34;5008427;28;20203;-66
2022/09/10 08:06:24;;;;;;;14.70;10.05;;;;;;;33.13;nan;95006.22;5008720;28;20839;-66
2022/09/10 08:08:51;;;;;;;12.23;9.68;;;;;;;32.84;nan;94982.69;5010101;28;20290;-65
2022/09/10 08:11:19;;;;;;;13.77;10.48;;;;;;;32.60;nan;94990.94;5010332;28;20610;-65
2022/09/10 08:13:49;;;;;;;14.85;10.48;;;;;;;32.44;nan;94982.28;5012017;28;20225;-65
2022/09/10 08:16:19;;;;;;;16.42;10.23;;;;;;;32.47;nan;94979.28;5009876;28;20253;-66
2022/09/10 08:18:46;;;;;;;14.05;9.88;;;;;;;32.47;nan;94989.78;5010933;28;20253;-65
2022/09/10 08:21:14;;;;;;;14.57;9.57;;;;;;;31.99;nan;94937.88;5008609;28;20226;-64
2022/09/10 08:23:42;;;;;;;15.15;9.13;;;;;;;32.25;nan;94959.22;5009809;28;20277;-65
2022/09/10 08:26:09;;;;;;;11.70;10.43;;;;;;;;;;5008623;28;20582;-65
2022/09/10 08:28:36;;;;;;;13.60;10.80;;;;;;;31.04;nan;94969.31;5010424;28;20230;-64
2022/09/10 08:31:06;;;;;;;10.63;9.23;;;;;;;30.42;nan;94954.59;5009834;28;20252;-64
2022/09/10 08:33:35;;;;;;;16.77;11.45;;;;;;;29.10;nan;94964.97;5009663;28;20203;-64
2022/09/10 08:36:03;;;;;;;12.15;10.10;;;;;;;28.35;nan;94976.56;5009151;28;20642;-67
2022/09/10 08:38:32;;;;;;;15.43;10.38;;;;;;;28.05;nan;94959.66;5008706;28;20799;-62
2022/09/10 08:41:00;;;;;;;15.30;9.93;;;;;;;28.15;nan;94960.34;5010470;28;20203;-65
2022/09/10 08:43:33;;;;;;;14.55;11.27;;;;;;;28.10;nan;94962.63;5007473;28;20203;-65
2022/09/10 08:46:04;;;;;;;18.55;9.82;;;;;;;27.88;nan;94963.22;5008858;28;20195;-66
2022/09/10 08:48:38;;;;;;;11.43;10.23;;;;;;;27.83;nan;94991.59;5011051;28;20322;-64
2022/09/10 08:51:14;;;;;;;17.15;11.85;;;;;;;27.76;nan;94966.13;5009942;28;20573;-66
2022/09/10 08:53:46;;;;;;;12.27;11.00;;;;;;;27.67;nan;94961.06;5008947;28;20710;-64
2022/09/10 08:56:17;;;;;;;33.15;14.57;;;;;;;27.77;nan;94967.75;5009158;28;21909;-66
2022/09/10 08:58:49;;;;;;;20.52;13.07;;;;;;;27.95;nan;94970.28;5010866;28;20675;-65
2022/09/10 09:01:29;;;;;;;13.52;10.60;;;;;;;27.35;nan;94998.22;5010731;28;20211;-63
2022/09/10 09:03:58;;;;;;;14.15;11.02;;;;;;;27.38;nan;94971.81;5008378;28;21814;-64
2022/09/10 09:06:32;;;;;;;13.25;10.13;;;;;;;27.51;nan;94966.97;5008875;28;20247;-66
2022/09/10 09:09:00;;;;;;;19.33;10.65;;;;;;;27.67;nan;94967.09;5008450;28;20230;-66
2022/09/10 09:11:40;;;;;;;22.70;10.80;;;;;;;27.49;nan;94963.69;5008990;28;20974;-65
2022/09/10 09:14:26;;;;;;;11.95;10.32;;;;;;;27.42;nan;94962.72;5007643;28;20207;-64
2022/09/10 09:17:26;;;;;;;15.73;10.93;;;;;;;27.14;nan;94943.00;5009232;28;20260;-65
2022/09/10 09:19:57;;;;;;;16.05;11.30;;;;;;;;;;5008778;28;20277;-66
2022/09/10 09:22:33;;;;;;;12.10;10.07;;;;;;;27.01;nan;94923.34;5008803;28;20959;-65
2022/09/10 09:25:08;;;;;;;21.85;10.45;;;;;;;27.21;nan;94928.38;5009107;28;20198;-64
2022/09/10 09:27:40;;;;;;;19.83;11.02;;;;;;;26.97;nan;94922.06;5008345;28;20199;-65
2022/09/10 09:30:17;;;;;;;17.42;11.88;;;;;;;27.01;nan;94915.53;5007540;28;20207;-63
2022/09/10 09:32:46;;;;;;;20.17;11.20;;;;;;;27.23;nan;94906.34;5008758;28;20207;-64
2022/09/10 09:35:25;;;;;;;13.52;10.90;;;;;;;27.43;nan;94912.97;5006716;28;20866;-66
2022/09/10 09:38:04;;;;;;;11.02;9.88;;;;;;;27.62;nan;94917.13;5007945;28;20686;-65
2022/09/10 09:40:37;;;;;;;19.10;15.15;;;;;;;27.33;nan;94898.41;5009422;28;20211;-64
2022/09/10 09:43:11;;;;;;;15.57;10.75;;;;;;;27.66;nan;94886.31;5007789;28;20211;-63
2022/09/10 09:45:42;;;;;;;19.27;10.75;;;;;;;27.75;nan;94885.34;5007169;28;20959;-64
2022/09/10 09:48:13;;;;;;;15.18;10.93;;;;;;;27.62;nan;94874.53;5006564;28;20229;-65
2022/09/10 09:50:43;;;;;;;12.43;11.07;;;;;;;27.59;nan;94875.69;5008677;28;20288;-65
2022/09/10 09:53:17;;;;;;;17.08;9.95;;;;;;;27.61;nan;94880.75;5008786;28;20672;-66
2022/09/10 09:55:47;;;;;;;26.33;17.38;;;;;;;28.08;nan;94875.75;5008103;28;20775;-66
2022/09/10 09:58:35;;;;;;;23.88;11.10;;;;;;;28.60;nan;94878.06;5008735;28;20265;-66
2022/09/10 10:01:15;;;;;;;11.80;10.80;;;;;;;28.24;nan;94865.31;5002720;28;21080;-67
2022/09/10 10:04:01;;;;;;;16.23;10.82;;;;;;;28.40;nan;94865.34;5008664;28;20211;-68
2022/09/10 10:06:33;;;;;;;16.80;12.77;;;;;;;28.53;nan;94864.00;5007302;28;20720;-65
2022/09/10 10:09:03;;;;;;;13.15;10.23;;;;;;;28.26;nan;94852.91;5006374;28;20330;-65
2022/09/10 10:11:44;;;;;;;16.10;9.88;;;;;;;28.24;nan;94844.41;5009270;28;20811;-65
2022/09/10 10:14:35;;;;;;;19.55;9.93;;;;;;;28.53;nan;94843.91;5008710;28;20231;-65
2022/09/10 10:17:02;;;;;;;13.68;9.07;;;;;;;28.71;nan;94830.63;5006907;28;20613;-64
2022/09/10 10:19:33;;;;;;;12.45;10.65;;;;;;;28.25;nan;94830.38;5003458;28;20345;-66
2022/09/10 10:22:25;;;;;;;17.30;9.30;;;;;;;28.30;nan;94825.47;5005564;28;20307;-66
2022/09/10 10:24:53;;;;;;;12.65;9.05;;;;;;;28.97;nan;94825.97;5007450;28;20710;-63
2022/09/10 10:27:34;;;;;;;16.10;9.57;;;;;;;28.49;nan;94816.44;5007092;28;20207;-64
2022/09/10 10:30:06;;;;;;;19.55;9.52;;;;;;;28.56;nan;94822.66;5007873;28;20199;-63
2022/09/10 10:32:43;;;;;;;14.85;8.30;;;;;;;28.70;nan;94777.53;5005409;28;20215;-64
2022/09/10 10:35:33;;;;;;;14.25;8.60;;;;;;;29.01;nan;94801.13;5004478;28;20203;-65
2022/09/10 10:38:26;;;;;;;17.17;8.70;;;;;;;28.72;nan;94800.88;5008171;28;20347;-63
2022/09/10 10:41:06;;;;;;;9.40;8.20;;;;;;;28.37;nan;94802.94;5007169;28;21159;-65
2022/09/10 10:43:46;;;;;;;13.65;8.23;;;;;;;28.39;nan;94808.00;5006569;28;20600;-65
2022/09/10 10:46:19;;;;;;;11.02;9.07;;;;;;;28.32;nan;94826.13;5006596;28;20705;-65
2022/09/10 10:49:01;;;;;;;17.10;9.27;;;;;;;27.99;nan;94808.78;5007339;28;20191;-65
2022/09/10 10:51:36;;;;;;;14.75;9.10;;;;;;;27.98;nan;94801.94;5007656;28;20206;-64
2022/09/10 10:54:27;;;;;;;16.77;9.25;;;;;;;27.78;nan;94802.28;5005308;28;20202;-64
2022/09/10 10:57:05;;;;;;;15.45;9.40;;;;;;;28.00;nan;94806.03;5006429;28;20664;-64
2022/09/10 10:59:51;;;;;;;10.23;9.23;;;;;;;27.96;nan;94796.09;5007126;28;21060;-63
2022/09/10 11:02:27;;;;;;;17.02;9.25;;;;;;;27.82;nan;94797.53;5004560;28;20846;-65
2022/09/10 11:04:55;;;;;;;10.85;9.10;;;;;;;27.80;nan;94835.25;5004937;28;20303;-63
2022/09/10 11:07:30;;;;;;;15.38;9.63;;;;;;;27.73;nan;94815.00;5006145;28;20227;-66
2022/09/10 11:10:03;;;;;;;14.95;10.55;;;;;;;27.29;nan;94831.84;5006897;28;20210;-65
2022/09/10 11:12:33;;;;;;;17.38;10.40;;;;;;;27.22;nan;94847.31;5007080;28;20232;-65
2022/09/10 11:15:03;;;;;;;22.02;10.32;;;;;;;26.71;nan;94858.63;5006543;28;20199;-66
2022/09/10 11:17:33;;;;;;;25.52;10.60;;;;;;;;;;5004598;28;20227;-65
2022/09/10 11:20:08;;;;;;;22.77;7.60;;;;;;;25.02;nan;94927.91;5006550;28;20194;-64
2022/09/10 11:22:39;;;;;;;13.32;6.63;;;;;;;23.44;nan;94980.97;5011330;28;20257;-65
2022/09/10 11:25:18;;;;;;;25.02;10.95;;;;;;;22.34;nan;94927.16;5010121;28;20717;-63
2022/09/10 11:27:49;;;;;;;15.02;8.73;;;;;;;22.04;nan;94940.81;5010087;28;20594;-66
2022/09/10 11:30:18;;;;;;;16.98;8.82;;;;;;;21.61;nan;94918.38;5011173;28;20234;-65
2022/09/10 11:32:50;;;;;;;13.32;7.72;;;;;;;21.80;nan;94898.78;5011424;28;20210;-65
2022/09/10 11:35:23;;;;;;;16.65;7.70;;;;;;;21.82;nan;94896.91;5010475;28;20635;-66
2022/09/10 11:37:53;;;;;;;11.32;7.63;;;;;;;;;;5009435;28;20231;-65
2022/09/10 11:40:27;;;;;;;9.80;6.88;;;;;;;21.91;nan;94903.94;5012545;28;20682;-65
2022/09/10 11:42:59;;;;;;;16.58;8.35;;;;;;;22.01;nan;94904.88;5010020;28;20628;-65
2022/09/10 11:45:35;;;;;;;12.68;8.23;;;;;;;21.98;nan;94905.09;5011094;28;20206;-65
2022/09/10 11:48:10;;;;;;;13.27;8.52;;;;;;;22.20;nan;94899.84;5010105;28;20194;-65
2022/09/10 11:50:45;;;;;;;16.17;8.18;;;;;;;22.36;nan;94907.16;5011575;28;20210;-65
2022/09/10 11:53:15;;;;;;;20.83;9.52;;;;;;;22.21;nan;94896.31;5010852;28;20659;-66
2022/09/10 11:55:57;;;;;;;16.48;9.50;;;;;;;22.19;nan;94880.06;5009441;28;20290;-66
2022/09/10 11:58:34;;;;;;;18.25;10.30;;;;;;;22.30;nan;94879.16;5010509;28;20240;-64